sensor_id;sensor_type;location;lat;lon;timestamp;P1;durP1;ratioP1;P2;durP2;ratioP2
21798;SDS011;24973;47.178;15.316;2022-11-13T00:00:39;7.70;;;6.50;;
21798;SDS011;24973;47.178;15.316;2022-11-13T00:03:28;10.43;;;5.47;;
21798;SDS011;24973;47.178;15.316;2022-11-13T00:06:17;5.97;;;4.97;;
21798;SDS011;24973;47.178;15.316;2022-11-13T00:09:07;9.07;;;5.40;;
21798;SDS011;24973;47.178;15.316;2022-11-13T00:11:58;8.60;;;6.10;;
21798;SDS011;24973;47.178;15.316;2022-11-13T00:14:48;11.70;;;6.03;;
21798;SDS011;24973;47.178;15.316;2022-11-13T00:17:37;7.67;;;5.17;;
21798;SDS011;24973;47.178;15.316;2022-11-13T00:20:25;6.63;;;4.80;;
21798;SDS011;24973;47.178;15.316;2022-11-13T00:23:14;12.27;;;6.20;;
21798;SDS011;24973;47.178;15.316;2022-11-13T00:26:04;5.83;;;5.23;;
21798;SDS011;24973;47.178;15.316;2022-11-13T00:28:54;6.37;;;5.07;;
21798;SDS011;24973;47.178;15.316;2022-11-13T00:31:46;7.27;;;5.17;;
21798;SDS011;24973;47.178;15.316;2022-11-13T00:34:35;5.13;;;4.63;;
21798;SDS011;24973;47.178;15.316;2022-11-13T00:37:39;9.03;;;5.57;;
21798;SDS011;24973;47.178;15.316;2022-11-13T00:40:27;10.07;;;6.17;;
21798;SDS011;24973;47.178;15.316;2022-11-13T00:43:16;6.90;;;5.40;;
21798;SDS011;24973;47.178;15.316;2022-11-13T00:46:05;7.93;;;5.23;;
21798;SDS011;24973;47.178;15.316;2022-11-13T00:48:55;7.07;;;4.90;;
21798;SDS011;24973;47.178;15.316;2022-11-13T00:51:44;5.37;;;4.30;;
21798;SDS011;24973;47.178;15.316;2022-11-13T00:54:33;7.67;;;4.17;;
21798;SDS011;24973;47.178;15.316;2022-11-13T00:57:22;5.27;;;4.23;;
21798;SDS011;24973;47.178;15.316;2022-11-13T01:00:11;5.83;;;4.70;;
21798;SDS011;24973;47.178;15.316;2022-11-13T01:02:59;6.87;;;5.27;;
21798;SDS011;24973;47.178;15.316;2022-11-13T01:05:50;7.33;;;5.70;;
21798;SDS011;24973;47.178;15.316;2022-11-13T01:08:39;9.20;;;5.40;;
21798;SDS011;24973;47.178;15.316;2022-11-13T01:11:28;7.67;;;4.73;;
21798;SDS011;24973;47.178;15.316;2022-11-13T01:14:18;6.80;;;5.20;;
21798;SDS011;24973;47.178;15.316;2022-11-13T01:17:06;4.23;;;3.83;;
21798;SDS011;24973;47.178;15.316;2022-11-13T01:19:55;6.27;;;4.57;;
21798;SDS011;24973;47.178;15.316;2022-11-13T01:22:45;6.27;;;4.20;;
21798;SDS011;24973;47.178;15.316;2022-11-13T01:25:34;4.97;;;3.90;;
21798;SDS011;24973;47.178;15.316;2022-11-13T01:28:23;6.63;;;4.63;;
21798;SDS011;24973;47.178;15.316;2022-11-13T01:31:12;8.63;;;6.00;;
21798;SDS011;24973;47.178;15.316;2022-11-13T01:34:03;5.40;;;4.70;;
21798;SDS011;24973;47.178;15.316;2022-11-13T01:36:52;6.27;;;4.00;;
21798;SDS011;24973;47.178;15.316;2022-11-13T01:39:42;5.87;;;3.40;;
21798;SDS011;24973;47.178;15.316;2022-11-13T01:42:30;8.47;;;3.50;;
21798;SDS011;24973;47.178;15.316;2022-11-13T01:48:55;4.37;;;3.97;;
21798;SDS011;24973;47.178;15.316;2022-11-13T01:51:51;4.97;;;3.73;;
21798;SDS011;24973;47.178;15.316;2022-11-13T01:54:46;3.83;;;3.50;;
21798;SDS011;24973;47.178;15.316;2022-11-13T01:57:37;4.80;;;3.70;;
21798;SDS011;24973;47.178;15.316;2022-11-13T02:00:27;5.00;;;4.00;;
21798;SDS011;24973;47.178;15.316;2022-11-13T02:03:16;4.30;;;3.30;;
21798;SDS011;24973;47.178;15.316;2022-11-13T02:06:05;6.00;;;4.07;;
21798;SDS011;24973;47.178;15.316;2022-11-13T02:08:54;8.33;;;4.33;;
21798;SDS011;24973;47.178;15.316;2022-11-13T02:11:44;7.67;;;3.80;;
21798;SDS011;24973;47.178;15.316;2022-11-13T02:14:34;5.73;;;4.00;;
21798;SDS011;24973;47.178;15.316;2022-11-13T02:17:26;5.67;;;3.70;;
21798;SDS011;24973;47.178;15.316;2022-11-13T02:20:20;4.47;;;4.07;;
21798;SDS011;24973;47.178;15.316;2022-11-13T02:23:16;4.47;;;3.10;;
21798;SDS011;24973;47.178;15.316;2022-11-13T02:26:12;4.53;;;3.40;;
21798;SDS011;24973;47.178;15.316;2022-11-13T02:29:02;4.53;;;3.63;;
21798;SDS011;24973;47.178;15.316;2022-11-13T02:31:51;8.33;;;4.03;;
21798;SDS011;24973;47.178;15.316;2022-11-13T02:34:39;4.37;;;3.43;;
21798;SDS011;24973;47.178;15.316;2022-11-13T02:37:28;4.37;;;3.70;;
21798;SDS011;24973;47.178;15.316;2022-11-13T02:40:17;4.43;;;3.70;;
21798;SDS011;24973;47.178;15.316;2022-11-13T02:43:08;5.90;;;3.57;;
21798;SDS011;24973;47.178;15.316;2022-11-13T02:45:56;5.80;;;4.20;;
21798;SDS011;24973;47.178;15.316;2022-11-13T02:48:45;3.93;;;3.53;;
21798;SDS011;24973;47.178;15.316;2022-11-13T02:51:34;5.50;;;4.53;;
21798;SDS011;24973;47.178;15.316;2022-11-13T02:54:22;4.20;;;3.20;;
21798;SDS011;24973;47.178;15.316;2022-11-13T02:57:11;3.43;;;3.13;;
21798;SDS011;24973;47.178;15.316;2022-11-13T03:00:02;4.70;;;2.40;;
21798;SDS011;24973;47.178;15.316;2022-11-13T03:02:54;5.47;;;3.97;;
21798;SDS011;24973;47.178;15.316;2022-11-13T03:05:46;4.23;;;3.60;;
21798;SDS011;24973;47.178;15.316;2022-11-13T03:08:36;4.93;;;3.90;;
21798;SDS011;24973;47.178;15.316;2022-11-13T03:11:25;6.40;;;4.13;;
21798;SDS011;24973;47.178;15.316;2022-11-13T03:14:13;5.90;;;3.77;;
21798;SDS011;24973;47.178;15.316;2022-11-13T03:17:03;3.83;;;2.93;;
21798;SDS011;24973;47.178;15.316;2022-11-13T03:19:52;5.13;;;3.30;;
21798;SDS011;24973;47.178;15.316;2022-11-13T03:22:41;4.00;;;3.57;;
21798;SDS011;24973;47.178;15.316;2022-11-13T03:25:29;3.50;;;2.97;;
21798;SDS011;24973;47.178;15.316;2022-11-13T03:28:18;2.90;;;2.50;;
21798;SDS011;24973;47.178;15.316;2022-11-13T03:31:07;3.47;;;2.70;;
21798;SDS011;24973;47.178;15.316;2022-11-13T03:33:57;3.27;;;2.97;;
21798;SDS011;24973;47.178;15.316;2022-11-13T03:36:46;8.93;;;3.03;;
21798;SDS011;24973;47.178;15.316;2022-11-13T03:39:34;3.50;;;3.20;;
21798;SDS011;24973;47.178;15.316;2022-11-13T03:42:23;3.60;;;2.90;;
21798;SDS011;24973;47.178;15.316;2022-11-13T03:45:12;3.00;;;2.80;;
21798;SDS011;24973;47.178;15.316;2022-11-13T03:48:00;4.07;;;2.77;;
21798;SDS011;24973;47.178;15.316;2022-11-13T03:50:51;6.87;;;2.77;;
21798;SDS011;24973;47.178;15.316;2022-11-13T03:53:41;3.63;;;2.90;;
21798;SDS011;24973;47.178;15.316;2022-11-13T03:56:30;2.27;;;2.07;;
21798;SDS011;24973;47.178;15.316;2022-11-13T03:59:19;3.53;;;3.23;;
21798;SDS011;24973;47.178;15.316;2022-11-13T04:02:07;5.23;;;3.30;;
21798;SDS011;24973;47.178;15.316;2022-11-13T04:04:56;5.37;;;3.73;;
21798;SDS011;24973;47.178;15.316;2022-11-13T04:07:46;3.07;;;2.83;;
21798;SDS011;24973;47.178;15.316;2022-11-13T04:10:35;4.43;;;2.97;;
21798;SDS011;24973;47.178;15.316;2022-11-13T04:13:24;3.23;;;2.93;;
21798;SDS011;24973;47.178;15.316;2022-11-13T04:16:12;6.57;;;2.93;;
21798;SDS011;24973;47.178;15.316;2022-11-13T04:19:01;4.43;;;2.77;;
21798;SDS011;24973;47.178;15.316;2022-11-13T04:21:50;3.20;;;2.90;;
21798;SDS011;24973;47.178;15.316;2022-11-13T04:24:40;3.33;;;3.03;;
21798;SDS011;24973;47.178;15.316;2022-11-13T04:27:29;4.20;;;3.20;;
21798;SDS011;24973;47.178;15.316;2022-11-13T04:30:18;3.07;;;2.43;;
21798;SDS011;24973;47.178;15.316;2022-11-13T04:33:06;4.03;;;2.43;;
21798;SDS011;24973;47.178;15.316;2022-11-13T04:35:55;5.13;;;3.17;;
21798;SDS011;24973;47.178;15.316;2022-11-13T04:38:44;5.37;;;2.50;;
21798;SDS011;24973;47.178;15.316;2022-11-13T04:41:34;3.13;;;2.83;;
21798;SDS011;24973;47.178;15.316;2022-11-13T04:44:41;4.00;;;3.07;;
21798;SDS011;24973;47.178;15.316;2022-11-13T04:47:29;4.77;;;3.37;;
21798;SDS011;24973;47.178;15.316;2022-11-13T04:50:18;4.20;;;3.10;;
21798;SDS011;24973;47.178;15.316;2022-11-13T04:53:07;3.40;;;2.90;;
21798;SDS011;24973;47.178;15.316;2022-11-13T04:55:55;5.77;;;3.17;;
21798;SDS011;24973;47.178;15.316;2022-11-13T04:58:46;3.07;;;2.60;;
21798;SDS011;24973;47.178;15.316;2022-11-13T05:01:34;3.37;;;2.60;;
21798;SDS011;24973;47.178;15.316;2022-11-13T05:04:23;3.17;;;2.87;;
21798;SDS011;24973;47.178;15.316;2022-11-13T05:07:12;3.60;;;3.27;;
21798;SDS011;24973;47.178;15.316;2022-11-13T05:10:01;4.47;;;2.70;;
21798;SDS011;24973;47.178;15.316;2022-11-13T05:12:51;3.43;;;2.60;;
21798;SDS011;24973;47.178;15.316;2022-11-13T05:15:44;7.57;;;3.57;;
21798;SDS011;24973;47.178;15.316;2022-11-13T05:18:33;4.97;;;3.20;;
21798;SDS011;24973;47.178;15.316;2022-11-13T05:21:24;5.93;;;3.77;;
21798;SDS011;24973;47.178;15.316;2022-11-13T05:24:12;4.80;;;3.60;;
21798;SDS011;24973;47.178;15.316;2022-11-13T05:27:01;8.37;;;3.70;;
21798;SDS011;24973;47.178;15.316;2022-11-13T05:29:50;4.83;;;3.77;;
21798;SDS011;24973;47.178;15.316;2022-11-13T05:32:40;3.77;;;2.97;;
21798;SDS011;24973;47.178;15.316;2022-11-13T05:35:29;4.47;;;2.83;;
21798;SDS011;24973;47.178;15.316;2022-11-13T05:38:18;3.80;;;2.63;;
21798;SDS011;24973;47.178;15.316;2022-11-13T05:41:07;4.50;;;4.10;;
21798;SDS011;24973;47.178;15.316;2022-11-13T05:43:58;4.47;;;3.87;;
21798;SDS011;24973;47.178;15.316;2022-11-13T05:46:47;4.33;;;3.90;;
21798;SDS011;24973;47.178;15.316;2022-11-13T05:49:37;3.40;;;3.07;;
21798;SDS011;24973;47.178;15.316;2022-11-13T05:52:25;6.37;;;3.77;;
21798;SDS011;24973;47.178;15.316;2022-11-13T05:55:14;5.23;;;3.20;;
21798;SDS011;24973;47.178;15.316;2022-11-13T05:58:04;4.30;;;3.63;;
21798;SDS011;24973;47.178;15.316;2022-11-13T06:00:53;4.43;;;4.07;;
21798;SDS011;24973;47.178;15.316;2022-11-13T06:03:53;3.73;;;3.43;;
21798;SDS011;24973;47.178;15.316;2022-11-13T06:06:43;5.17;;;4.57;;
21798;SDS011;24973;47.178;15.316;2022-11-13T06:09:32;7.33;;;4.27;;
21798;SDS011;24973;47.178;15.316;2022-11-13T06:12:21;4.43;;;3.77;;
21798;SDS011;24973;47.178;15.316;2022-11-13T06:15:10;6.13;;;4.50;;
21798;SDS011;24973;47.178;15.316;2022-11-13T06:17:58;4.43;;;4.03;;
21798;SDS011;24973;47.178;15.316;2022-11-13T06:20:47;10.03;;;7.23;;
21798;SDS011;24973;47.178;15.316;2022-11-13T06:23:38;6.63;;;5.10;;
21798;SDS011;24973;47.178;15.316;2022-11-13T06:26:28;7.17;;;6.13;;
21798;SDS011;24973;47.178;15.316;2022-11-13T06:29:19;9.93;;;7.73;;
21798;SDS011;24973;47.178;15.316;2022-11-13T06:32:08;6.97;;;4.83;;
21798;SDS011;24973;47.178;15.316;2022-11-13T06:34:58;5.80;;;4.77;;
21798;SDS011;24973;47.178;15.316;2022-11-13T06:37:47;8.23;;;4.40;;
21798;SDS011;24973;47.178;15.316;2022-11-13T06:40:37;8.97;;;5.33;;
21798;SDS011;24973;47.178;15.316;2022-11-13T06:43:27;9.13;;;7.13;;
21798;SDS011;24973;47.178;15.316;2022-11-13T06:46:16;8.43;;;6.03;;
21798;SDS011;24973;47.178;15.316;2022-11-13T06:49:07;7.80;;;5.23;;
21798;SDS011;24973;47.178;15.316;2022-11-13T06:51:56;6.73;;;5.13;;
21798;SDS011;24973;47.178;15.316;2022-11-13T06:54:44;9.80;;;6.23;;
21798;SDS011;24973;47.178;15.316;2022-11-13T06:57:34;7.67;;;5.93;;
21798;SDS011;24973;47.178;15.316;2022-11-13T07:00:23;9.70;;;7.00;;
21798;SDS011;24973;47.178;15.316;2022-11-13T07:03:14;8.90;;;5.17;;
21798;SDS011;24973;47.178;15.316;2022-11-13T07:06:04;7.30;;;5.17;;
21798;SDS011;24973;47.178;15.316;2022-11-13T07:08:55;4.90;;;4.43;;
21798;SDS011;24973;47.178;15.316;2022-11-13T07:11:43;6.83;;;5.33;;
21798;SDS011;24973;47.178;15.316;2022-11-13T07:14:33;6.67;;;4.57;;
21798;SDS011;24973;47.178;15.316;2022-11-13T07:17:22;5.17;;;3.73;;
21798;SDS011;24973;47.178;15.316;2022-11-13T07:20:11;4.87;;;3.93;;
21798;SDS011;24973;47.178;15.316;2022-11-13T07:23:00;7.63;;;4.40;;
21798;SDS011;24973;47.178;15.316;2022-11-13T07:25:52;5.73;;;4.40;;
21798;SDS011;24973;47.178;15.316;2022-11-13T07:28:41;4.53;;;4.10;;
21798;SDS011;24973;47.178;15.316;2022-11-13T07:31:31;5.67;;;4.57;;
21798;SDS011;24973;47.178;15.316;2022-11-13T07:34:20;5.40;;;3.90;;
21798;SDS011;24973;47.178;15.316;2022-11-13T07:37:09;5.17;;;4.57;;
21798;SDS011;24973;47.178;15.316;2022-11-13T07:39:57;6.93;;;6.23;;
21798;SDS011;24973;47.178;15.316;2022-11-13T07:42:46;6.27;;;5.30;;
21798;SDS011;24973;47.178;15.316;2022-11-13T07:45:35;7.47;;;6.20;;
21798;SDS011;24973;47.178;15.316;2022-11-13T07:48:25;7.57;;;6.40;;
21798;SDS011;24973;47.178;15.316;2022-11-13T07:51:14;9.40;;;6.20;;
21798;SDS011;24973;47.178;15.316;2022-11-13T07:54:03;6.13;;;5.27;;
21798;SDS011;24973;47.178;15.316;2022-11-13T07:56:58;6.13;;;5.57;;
21798;SDS011;24973;47.178;15.316;2022-11-13T07:59:46;8.43;;;5.73;;
21798;SDS011;24973;47.178;15.316;2022-11-13T08:02:35;7.77;;;6.20;;
21798;SDS011;24973;47.178;15.316;2022-11-13T08:05:25;7.87;;;5.90;;
21798;SDS011;24973;47.178;15.316;2022-11-13T08:08:14;6.53;;;5.63;;
21798;SDS011;24973;47.178;15.316;2022-11-13T08:11:03;12.20;;;8.83;;
21798;SDS011;24973;47.178;15.316;2022-11-13T08:13:53;8.50;;;5.97;;
21798;SDS011;24973;47.178;15.316;2022-11-13T08:16:41;10.53;;;8.77;;
21798;SDS011;24973;47.178;15.316;2022-11-13T08:19:30;8.43;;;6.00;;
21798;SDS011;24973;47.178;15.316;2022-11-13T08:22:20;6.63;;;6.03;;
21798;SDS011;24973;47.178;15.316;2022-11-13T08:25:09;6.80;;;5.37;;
21798;SDS011;24973;47.178;15.316;2022-11-13T08:27:58;7.10;;;4.70;;
21798;SDS011;24973;47.178;15.316;2022-11-13T08:30:47;5.13;;;4.57;;
21798;SDS011;24973;47.178;15.316;2022-11-13T08:33:35;6.57;;;5.63;;
21798;SDS011;24973;47.178;15.316;2022-11-13T08:36:25;5.80;;;5.10;;
21798;SDS011;24973;47.178;15.316;2022-11-13T08:39:15;8.07;;;6.27;;
21798;SDS011;24973;47.178;15.316;2022-11-13T08:42:03;7.73;;;6.00;;
21798;SDS011;24973;47.178;15.316;2022-11-13T08:44:52;7.53;;;6.77;;
21798;SDS011;24973;47.178;15.316;2022-11-13T08:47:41;9.23;;;7.27;;
21798;SDS011;24973;47.178;15.316;2022-11-13T08:50:31;9.77;;;8.17;;
21798;SDS011;24973;47.178;15.316;2022-11-13T08:53:20;13.87;;;8.77;;
21798;SDS011;24973;47.178;15.316;2022-11-13T08:56:11;9.80;;;7.80;;
21798;SDS011;24973;47.178;15.316;2022-11-13T08:59:00;12.30;;;8.30;;
21798;SDS011;24973;47.178;15.316;2022-11-13T09:01:49;10.97;;;8.03;;
21798;SDS011;24973;47.178;15.316;2022-11-13T09:04:43;10.93;;;7.90;;
21798;SDS011;24973;47.178;15.316;2022-11-13T09:07:32;10.17;;;8.27;;
21798;SDS011;24973;47.178;15.316;2022-11-13T09:10:21;9.83;;;8.13;;
21798;SDS011;24973;47.178;15.316;2022-11-13T09:13:11;17.70;;;13.87;;
21798;SDS011;24973;47.178;15.316;2022-11-13T09:16:00;12.43;;;9.57;;
21798;SDS011;24973;47.178;15.316;2022-11-13T09:18:50;10.63;;;8.40;;
21798;SDS011;24973;47.178;15.316;2022-11-13T09:21:39;9.37;;;8.17;;
21798;SDS011;24973;47.178;15.316;2022-11-13T09:24:27;9.33;;;7.83;;
21798;SDS011;24973;47.178;15.316;2022-11-13T09:27:16;9.73;;;7.93;;
21798;SDS011;24973;47.178;15.316;2022-11-13T09:30:07;12.40;;;8.17;;
21798;SDS011;24973;47.178;15.316;2022-11-13T09:32:57;10.63;;;7.93;;
21798;SDS011;24973;47.178;15.316;2022-11-13T09:35:47;14.70;;;11.40;;
21798;SDS011;24973;47.178;15.316;2022-11-13T09:38:36;16.70;;;12.30;;
21798;SDS011;24973;47.178;15.316;2022-11-13T09:41:27;12.77;;;9.80;;
21798;SDS011;24973;47.178;15.316;2022-11-13T09:44:28;14.17;;;10.23;;
21798;SDS011;24973;47.178;15.316;2022-11-13T09:47:23;13.87;;;8.63;;
21798;SDS011;24973;47.178;15.316;2022-11-13T09:50:17;15.87;;;8.97;;
21798;SDS011;24973;47.178;15.316;2022-11-13T09:53:10;12.33;;;8.73;;
21798;SDS011;24973;47.178;15.316;2022-11-13T09:56:01;11.50;;;8.70;;
21798;SDS011;24973;47.178;15.316;2022-11-13T09:59:05;13.00;;;9.87;;
21798;SDS011;24973;47.178;15.316;2022-11-13T10:02:03;12.87;;;8.70;;
21798;SDS011;24973;47.178;15.316;2022-11-13T10:05:09;13.20;;;9.43;;
21798;SDS011;24973;47.178;15.316;2022-11-13T10:08:10;14.67;;;10.77;;
21798;SDS011;24973;47.178;15.316;2022-11-13T10:11:05;10.93;;;8.77;;
21798;SDS011;24973;47.178;15.316;2022-11-13T10:14:00;13.57;;;9.10;;
21798;SDS011;24973;47.178;15.316;2022-11-13T10:16:54;11.83;;;10.00;;
21798;SDS011;24973;47.178;15.316;2022-11-13T10:19:50;13.83;;;10.13;;
21798;SDS011;24973;47.178;15.316;2022-11-13T10:22:46;12.83;;;9.27;;
21798;SDS011;24973;47.178;15.316;2022-11-13T10:25:38;10.97;;;8.90;;
21798;SDS011;24973;47.178;15.316;2022-11-13T10:28:28;12.93;;;8.67;;
21798;SDS011;24973;47.178;15.316;2022-11-13T10:31:40;14.90;;;10.53;;
21798;SDS011;24973;47.178;15.316;2022-11-13T10:34:31;16.33;;;10.60;;
21798;SDS011;24973;47.178;15.316;2022-11-13T10:37:24;13.30;;;11.13;;
21798;SDS011;24973;47.178;15.316;2022-11-13T10:40:33;12.97;;;9.97;;
21798;SDS011;24973;47.178;15.316;2022-11-13T10:43:24;14.47;;;10.20;;
21798;SDS011;24973;47.178;15.316;2022-11-13T10:46:20;13.60;;;11.30;;
21798;SDS011;24973;47.178;15.316;2022-11-13T10:49:12;15.17;;;9.90;;
21798;SDS011;24973;47.178;15.316;2022-11-13T10:52:11;13.40;;;9.27;;
21798;SDS011;24973;47.178;15.316;2022-11-13T10:55:11;12.20;;;8.00;;
21798;SDS011;24973;47.178;15.316;2022-11-13T10:58:12;12.97;;;8.27;;
21798;SDS011;24973;47.178;15.316;2022-11-13T11:01:12;10.57;;;8.40;;
21798;SDS011;24973;47.178;15.316;2022-11-13T11:04:02;13.83;;;7.80;;
21798;SDS011;24973;47.178;15.316;2022-11-13T11:06:51;8.77;;;6.90;;
21798;SDS011;24973;47.178;15.316;2022-11-13T11:10:01;10.03;;;6.60;;
21798;SDS011;24973;47.178;15.316;2022-11-13T11:12:51;8.38;;;6.82;;
21798;SDS011;24973;47.178;15.316;2022-11-13T11:15:43;10.85;;;8.10;;
21798;SDS011;24973;47.178;15.316;2022-11-13T11:18:36;8.27;;;6.77;;
21798;SDS011;24973;47.178;15.316;2022-11-13T11:21:31;9.73;;;6.77;;
21798;SDS011;24973;47.178;15.316;2022-11-13T11:24:23;7.37;;;6.63;;
21798;SDS011;24973;47.178;15.316;2022-11-13T11:27:18;8.27;;;7.20;;
21798;SDS011;24973;47.178;15.316;2022-11-13T11:30:14;12.23;;;8.77;;
21798;SDS011;24973;47.178;15.316;2022-11-13T11:33:11;9.90;;;8.37;;
21798;SDS011;24973;47.178;15.316;2022-11-13T11:36:07;12.33;;;8.33;;
21798;SDS011;24973;47.178;15.316;2022-11-13T11:39:08;10.27;;;8.37;;
21798;SDS011;24973;47.178;15.316;2022-11-13T11:42:18;10.07;;;7.87;;
21798;SDS011;24973;47.178;15.316;2022-11-13T11:45:15;11.13;;;7.90;;
21798;SDS011;24973;47.178;15.316;2022-11-13T11:48:16;8.63;;;7.23;;
21798;SDS011;24973;47.178;15.316;2022-11-13T11:51:12;9.20;;;7.13;;
21798;SDS011;24973;47.178;15.316;2022-11-13T11:54:14;10.30;;;7.00;;
21798;SDS011;24973;47.178;15.316;2022-11-13T11:57:17;10.13;;;7.00;;
21798;SDS011;24973;47.178;15.316;2022-11-13T12:00:22;8.97;;;6.40;;
21798;SDS011;24973;47.178;15.316;2022-11-13T12:06:57;7.77;;;6.13;;
21798;SDS011;24973;47.178;15.316;2022-11-13T12:10:01;7.50;;;6.30;;
21798;SDS011;24973;47.178;15.316;2022-11-13T12:13:05;10.60;;;7.87;;
21798;SDS011;24973;47.178;15.316;2022-11-13T12:16:10;8.60;;;6.77;;
21798;SDS011;24973;47.178;15.316;2022-11-13T12:19:13;9.73;;;8.23;;
21798;SDS011;24973;47.178;15.316;2022-11-13T12:22:14;7.90;;;7.10;;
21798;SDS011;24973;47.178;15.316;2022-11-13T12:25:15;8.57;;;7.53;;
21798;SDS011;24973;47.178;15.316;2022-11-13T12:28:13;8.63;;;7.53;;
21798;SDS011;24973;47.178;15.316;2022-11-13T12:31:11;10.10;;;8.37;;
21798;SDS011;24973;47.178;15.316;2022-11-13T12:34:18;10.03;;;7.93;;
21798;SDS011;24973;47.178;15.316;2022-11-13T12:37:15;9.53;;;7.50;;
21798;SDS011;24973;47.178;15.316;2022-11-13T12:40:13;8.77;;;7.37;;
21798;SDS011;24973;47.178;15.316;2022-11-13T12:46:31;9.10;;;8.20;;
21798;SDS011;24973;47.178;15.316;2022-11-13T12:49:29;9.95;;;8.95;;
21798;SDS011;24973;47.178;15.316;2022-11-13T12:52:20;10.95;;;8.95;;
21798;SDS011;24973;47.178;15.316;2022-11-13T12:55:23;9.63;;;7.90;;
21798;SDS011;24973;47.178;15.316;2022-11-13T12:58:17;9.10;;;7.47;;
21798;SDS011;24973;47.178;15.316;2022-11-13T13:01:13;9.90;;;8.87;;
21798;SDS011;24973;47.178;15.316;2022-11-13T13:04:33;8.77;;;7.50;;
21798;SDS011;24973;47.178;15.316;2022-11-13T13:07:40;12.53;;;8.80;;
21798;SDS011;24973;47.178;15.316;2022-11-13T13:10:57;13.47;;;9.03;;
21798;SDS011;24973;47.178;15.316;2022-11-13T13:14:05;9.90;;;8.40;;
21798;SDS011;24973;47.178;15.316;2022-11-13T13:17:17;9.57;;;8.17;;
21798;SDS011;24973;47.178;15.316;2022-11-13T13:23:24;12.40;;;8.40;;
21798;SDS011;24973;47.178;15.316;2022-11-13T13:26:17;11.37;;;9.43;;
21798;SDS011;24973;47.178;15.316;2022-11-13T13:29:13;13.17;;;9.83;;
21798;SDS011;24973;47.178;15.316;2022-11-13T13:32:10;10.70;;;8.43;;
21798;SDS011;24973;47.178;15.316;2022-11-13T13:35:08;8.37;;;7.47;;
21798;SDS011;24973;47.178;15.316;2022-11-13T13:38:05;9.90;;;7.37;;
21798;SDS011;24973;47.178;15.316;2022-11-13T13:44:24;14.83;;;10.37;;
21798;SDS011;24973;47.178;15.316;2022-11-13T13:47:26;9.93;;;8.83;;
21798;SDS011;24973;47.178;15.316;2022-11-13T13:50:19;17.27;;;9.90;;
21798;SDS011;24973;47.178;15.316;2022-11-13T13:53:14;9.77;;;8.50;;
21798;SDS011;24973;47.178;15.316;2022-11-13T13:56:09;10.33;;;9.00;;
21798;SDS011;24973;47.178;15.316;2022-11-13T13:58:59;10.60;;;8.87;;
21798;SDS011;24973;47.178;15.316;2022-11-13T14:01:52;10.60;;;8.33;;
21798;SDS011;24973;47.178;15.316;2022-11-13T14:04:44;8.20;;;6.70;;
21798;SDS011;24973;47.178;15.316;2022-11-13T14:07:34;9.37;;;8.03;;
21798;SDS011;24973;47.178;15.316;2022-11-13T14:10:26;12.10;;;9.03;;
21798;SDS011;24973;47.178;15.316;2022-11-13T14:13:21;10.27;;;8.60;;
21798;SDS011;24973;47.178;15.316;2022-11-13T14:16:12;12.70;;;8.50;;
21798;SDS011;24973;47.178;15.316;2022-11-13T14:19:03;11.07;;;7.77;;
21798;SDS011;24973;47.178;15.316;2022-11-13T14:21:53;8.00;;;6.00;;
21798;SDS011;24973;47.178;15.316;2022-11-13T14:24:46;11.23;;;7.73;;
21798;SDS011;24973;47.178;15.316;2022-11-13T14:27:39;10.17;;;8.80;;
21798;SDS011;24973;47.178;15.316;2022-11-13T14:30:28;7.97;;;7.20;;
21798;SDS011;24973;47.178;15.316;2022-11-13T14:33:20;9.77;;;8.37;;
21798;SDS011;24973;47.178;15.316;2022-11-13T14:36:12;10.97;;;8.60;;
21798;SDS011;24973;47.178;15.316;2022-11-13T14:39:03;10.83;;;9.20;;
21798;SDS011;24973;47.178;15.316;2022-11-13T14:41:54;10.03;;;8.60;;
21798;SDS011;24973;47.178;15.316;2022-11-13T14:44:46;14.77;;;9.60;;
21798;SDS011;24973;47.178;15.316;2022-11-13T14:47:35;8.80;;;7.43;;
21798;SDS011;24973;47.178;15.316;2022-11-13T14:50:24;10.73;;;7.47;;
21798;SDS011;24973;47.178;15.316;2022-11-13T14:53:24;11.30;;;9.47;;
21798;SDS011;24973;47.178;15.316;2022-11-13T14:56:15;11.50;;;8.70;;
21798;SDS011;24973;47.178;15.316;2022-11-13T14:59:08;11.60;;;8.63;;
21798;SDS011;24973;47.178;15.316;2022-11-13T15:02:03;13.23;;;10.13;;
21798;SDS011;24973;47.178;15.316;2022-11-13T15:04:52;9.93;;;8.13;;
21798;SDS011;24973;47.178;15.316;2022-11-13T15:07:41;18.23;;;9.87;;
21798;SDS011;24973;47.178;15.316;2022-11-13T15:10:32;15.43;;;10.63;;
21798;SDS011;24973;47.178;15.316;2022-11-13T15:13:21;20.07;;;13.73;;
21798;SDS011;24973;47.178;15.316;2022-11-13T15:16:09;25.67;;;16.53;;
21798;SDS011;24973;47.178;15.316;2022-11-13T15:19:03;17.57;;;13.90;;
21798;SDS011;24973;47.178;15.316;2022-11-13T15:21:57;20.20;;;14.80;;
21798;SDS011;24973;47.178;15.316;2022-11-13T15:25:10;15.77;;;11.80;;
21798;SDS011;24973;47.178;15.316;2022-11-13T15:28:01;16.60;;;11.67;;
21798;SDS011;24973;47.178;15.316;2022-11-13T15:30:50;17.03;;;10.43;;
21798;SDS011;24973;47.178;15.316;2022-11-13T15:33:39;16.73;;;11.30;;
21798;SDS011;24973;47.178;15.316;2022-11-13T15:36:29;12.63;;;9.93;;
21798;SDS011;24973;47.178;15.316;2022-11-13T15:39:18;16.03;;;11.13;;
21798;SDS011;24973;47.178;15.316;2022-11-13T15:42:10;15.27;;;10.17;;
21798;SDS011;24973;47.178;15.316;2022-11-13T15:45:02;18.77;;;10.93;;
21798;SDS011;24973;47.178;15.316;2022-11-13T15:47:52;17.70;;;11.10;;
21798;SDS011;24973;47.178;15.316;2022-11-13T15:50:42;19.53;;;11.67;;
21798;SDS011;24973;47.178;15.316;2022-11-13T15:53:33;18.13;;;12.03;;
21798;SDS011;24973;47.178;15.316;2022-11-13T15:56:22;14.50;;;11.03;;
21798;SDS011;24973;47.178;15.316;2022-11-13T15:59:12;16.43;;;12.23;;
21798;SDS011;24973;47.178;15.316;2022-11-13T16:02:01;15.67;;;11.60;;
21798;SDS011;24973;47.178;15.316;2022-11-13T16:04:50;19.00;;;11.63;;
21798;SDS011;24973;47.178;15.316;2022-11-13T16:07:42;20.57;;;12.40;;
21798;SDS011;24973;47.178;15.316;2022-11-13T16:10:32;19.77;;;11.20;;
21798;SDS011;24973;47.178;15.316;2022-11-13T16:13:21;16.13;;;10.60;;
21798;SDS011;24973;47.178;15.316;2022-11-13T16:16:11;14.93;;;11.27;;
21798;SDS011;24973;47.178;15.316;2022-11-13T16:19:07;16.83;;;10.80;;
21798;SDS011;24973;47.178;15.316;2022-11-13T16:21:58;14.33;;;10.27;;
21798;SDS011;24973;47.178;15.316;2022-11-13T16:24:47;13.67;;;11.47;;
21798;SDS011;24973;47.178;15.316;2022-11-13T16:27:37;15.73;;;11.40;;
21798;SDS011;24973;47.178;15.316;2022-11-13T16:30:26;16.87;;;11.03;;
21798;SDS011;24973;47.178;15.316;2022-11-13T16:33:17;13.93;;;10.67;;
21798;SDS011;24973;47.178;15.316;2022-11-13T16:36:07;12.37;;;10.37;;
21798;SDS011;24973;47.178;15.316;2022-11-13T16:39:01;12.47;;;10.23;;
21798;SDS011;24973;47.178;15.316;2022-11-13T16:41:49;13.53;;;9.73;;
21798;SDS011;24973;47.178;15.316;2022-11-13T16:44:40;14.63;;;10.73;;
21798;SDS011;24973;47.178;15.316;2022-11-13T16:47:29;16.77;;;11.70;;
21798;SDS011;24973;47.178;15.316;2022-11-13T16:50:19;16.60;;;11.30;;
21798;SDS011;24973;47.178;15.316;2022-11-13T16:53:12;19.60;;;11.23;;
21798;SDS011;24973;47.178;15.316;2022-11-13T16:56:01;18.67;;;12.33;;
21798;SDS011;24973;47.178;15.316;2022-11-13T16:58:58;15.10;;;11.70;;
21798;SDS011;24973;47.178;15.316;2022-11-13T17:01:48;17.03;;;13.00;;
21798;SDS011;24973;47.178;15.316;2022-11-13T17:04:41;18.90;;;12.07;;
21798;SDS011;24973;47.178;15.316;2022-11-13T17:07:30;13.03;;;11.20;;
21798;SDS011;24973;47.178;15.316;2022-11-13T17:10:19;16.93;;;12.33;;